Time;durP1;ratioP1;P1;durP2;ratioP2;P2;SDS_P1;SDS_P2;PMS_P1;PMS_P2;Temp;Humidity;BMP_temperature;BMP_pressure;BME280_temperature;BME280_humidity;BME280_pressure;Samples;Min_cycle;Max_cycle;Signal;HPM_P1;HPM_P2
2023/03/14 00:02:27;;;;;;;0.70;0.50;;;;;;;;;;5013286;28;20456;-81
2023/03/14 00:04:56;;;;;;;0.50;0.37;;;;;;;;;;5012182;28;20459;-82
2023/03/14 00:07:24;;;;;;;3.83;0.90;;;;;;;;;;5013213;28;20866;-87
2023/03/14 00:09:52;;;;;;;4.20;1.50;;;;;;;;;;5010425;28;20956;-85
2023/03/14 00:12:19;;;;;;;2.10;1.37;;;;;;;;;;5013152;28;20464;-80
2023/03/14 00:14:47;;;;;;;1.53;0.77;;;;;;;;;;5012822;28;20499;-89
2023/03/14 00:17:15;;;;;;;0.40;0.30;;;;;;;;;;5013150;28;20449;-79
2023/03/14 00:19:42;;;;;;;1.70;0.93;;;;;;;;;;5011763;28;20480;-82
2023/03/14 00:22:09;;;;;;;1.93;0.90;;;;;;;;;;5013020;28;20574;-88
2023/03/14 00:24:37;;;;;;;0.77;0.60;;;;;;;;;;5013167;28;20821;-81
2023/03/14 00:27:04;;;;;;;1.77;0.80;;;;;;;;;;5012753;28;20451;-88
2023/03/14 00:29:31;;;;;;;1.37;0.70;;;;;;;;;;5013183;28;20474;-85
2023/03/14 00:31:58;;;;;;;0.60;0.40;;;;;;;;;;5013500;28;20448;-83
2023/03/14 00:34:29;;;;;;;0.80;0.50;;;8.90;99.90;;;;;;5011781;28;20504;-81
2023/03/14 00:36:56;;;;;;;1.00;0.50;;;;;;;;;;5006839;28;20449;-82
2023/03/14 00:39:24;;;;;;;0.63;0.40;;;;;;;;;;5012748;28;20476;-81
2023/03/14 00:41:51;;;;;;;3.00;0.93;;;;;;;;;;5012759;28;20503;-81
2023/03/14 00:44:18;;;;;;;0.40;0.20;;;;;;;;;;5013283;28;20457;-89
2023/03/14 00:46:45;;;;;;;1.13;0.73;;;;;;;;;;5013124;28;20448;-89
2023/03/14 00:49:12;;;;;;;0.40;0.30;;;;;;;;;;5011883;28;20464;-82
2023/03/14 00:51:40;;;;;;;0.87;0.50;;;;;;;;;;5012915;28;20924;-82
2023/03/14 00:54:07;;;;;;;0.87;0.60;;;;;;;;;;5012941;28;20498;-81
2023/03/14 00:56:35;;;;;;;0.43;0.40;;;;;;;;;;5012881;28;20928;-83
2023/03/14 00:59:02;;;;;;;0.80;0.50;;;;;;;;;;5012972;28;20967;-83
2023/03/14 01:01:29;;;;;;;0.60;0.47;;;;;;;;;;5013035;28;20453;-88
2023/03/14 01:03:56;;;;;;;0.40;0.37;;;;;;;;;;5011813;28;20796;-87
2023/03/14 01:06:25;;;;;;;0.60;0.40;;;9.10;99.90;;;;;;5013029;28;20459;-81
2023/03/14 01:08:53;;;;;;;1.20;0.70;;;;;;;;;;5013224;28;20448;-89
2023/03/14 01:11:21;;;;;;;0.50;0.40;;;;;;;;;;5015871;28;20459;-82
2023/03/14 01:13:48;;;;;;;1.60;0.93;;;;;;;;;;5016907;28;20487;-83
2023/03/14 01:16:16;;;;;;;0.40;0.30;;;;;;;;;;5016491;28;20463;-90
2023/03/14 01:18:44;;;;;;;0.60;0.40;;;9.20;99.90;;;;;;5015091;28;20455;-86
2023/03/14 01:21:12;;;;;;;0.77;0.43;;;;;;;;;;5016858;28;20475;-83
2023/03/14 01:23:39;;;;;;;2.57;1.47;;;;;;;;;;5016365;28;20455;-86
2023/03/14 01:26:09;;;;;;;0.70;0.50;;;;;;;;;;5016823;28;20476;-90
2023/03/14 01:28:36;;;;;;;0.40;0.30;;;;;;;;;;5016217;28;20833;-82
2023/03/14 01:31:04;;;;;;;0.50;0.37;;;;;;;;;;5016162;28;20469;-88
2023/03/14 01:33:31;;;;;;;1.13;0.70;;;;;;;;;;5014904;28;20459;-88
2023/03/14 01:35:58;;;;;;;1.87;1.20;;;;;;;;;;5015830;28;20487;-86
2023/03/14 01:38:25;;;;;;;0.53;0.20;;;;;;;;;;5015817;28;20472;-80
2023/03/14 01:40:52;;;;;;;0.73;0.50;;;;;;;;;;5015840;28;20452;-87
2023/03/14 01:43:21;;;;;;;1.23;0.83;;;;;;;;;;5015884;28;20453;-87
2023/03/14 01:46:30;;;;;;;0.80;0.40;;;9.30;99.90;;;;;;5015617;28;20452;-83
2023/03/14 01:49:03;;;;;;;0.70;0.43;;;;;;;;;;5000184;28;20456;-80
2023/03/14 01:51:31;;;;;;;1.13;0.70;;;;;;;;;;5015723;28;20952;-84
2023/03/14 01:54:02;;;;;;;2.20;0.83;;;;;;;;;;5015517;28;20452;-86
2023/03/14 01:56:30;;;;;;;0.93;0.33;;;;;;;;;;5015862;28;20813;-88
2023/03/14 01:59:00;;;;;;;1.80;1.10;;;9.20;99.90;;;;;;5015621;28;20459;-89
2023/03/14 02:01:27;;;;;;;0.90;0.50;;;9.10;99.90;;;;;;5015554;28;20452;-86
2023/03/14 02:03:56;;;;;;;1.03;0.70;;;9.10;99.90;;;;;;5014376;28;20453;-86
2023/03/14 02:06:26;;;;;;;1.03;0.70;;;9.10;99.90;;;;;;5015484;28;20460;-87
2023/03/14 02:08:53;;;;;;;0.70;0.40;;;;;;;;;;5015653;28;20503;-83
2023/03/14 02:11:20;;;;;;;5.90;1.80;;;;;;;;;;5015238;28;20448;-87
2023/03/14 02:13:47;;;;;;;0.40;0.30;;;;;;;;;;5015407;28;20449;-85
2023/03/14 02:16:16;;;;;;;1.43;0.73;;;;;;;;;;5015403;28;20456;-83
2023/03/14 02:18:43;;;;;;;1.33;0.53;;;;;;;;;;5014137;28;20472;-88
2023/03/14 02:21:13;;;;;;;0.47;0.30;;;;;;;;;;5015052;28;20540;-87
2023/03/14 02:23:45;;;;;;;1.97;1.23;;;;;;;;;;5015086;28;20440;-87
2023/03/14 02:26:16;;;;;;;1.57;1.13;;;;;;;;;;5015287;28;20460;-88
2023/03/14 02:28:44;;;;;;;1.17;1.03;;;;;;;;;;5015175;28;20447;-86
2023/03/14 02:31:12;;;;;;;0.70;0.40;;;;;;;;;;5015060;28;20456;-87
2023/03/14 02:33:39;;;;;;;1.67;1.57;;;;;;;;;;5013841;28;20444;-86
2023/03/14 02:36:10;;;;;;;0.40;0.30;;;8.90;99.90;;;;;;5014943;28;20506;-83
2023/03/14 02:38:42;;;;;;;0.40;0.30;;;8.90;99.90;;;;;;5014744;28;20491;-89
2023/03/14 02:41:09;;;;;;;0.90;0.70;;;;;;;;;;5010915;28;20445;-89
2023/03/14 02:43:36;;;;;;;3.07;2.83;;;;;;;;;;5014849;28;20464;-84
2023/03/14 02:46:07;;;;;;;2.10;1.90;;;8.80;99.90;;;;;;5014645;28;20448;-81
2023/03/14 02:48:38;;;;;;;1.13;0.40;;;8.80;99.90;;;;;;5009484;28;20444;-84
2023/03/14 02:51:05;;;;;;;2.10;0.40;;;;;;;;;;5012789;28;20444;-88
2023/03/14 02:53:34;;;;;;;0.50;0.30;;;8.80;99.90;;;;;;5014356;28;20448;-87
2023/03/14 02:56:01;;;;;;;0.70;0.43;;;;;;;;;;5014195;28;20491;-86
2023/03/14 02:58:29;;;;;;;1.83;0.30;;;8.80;99.90;;;;;;5014611;28;20452;-88
2023/03/14 03:00:56;;;;;;;0.50;0.40;;;;;;;;;;5014216;28;20463;-87
2023/03/14 03:03:24;;;;;;;2.03;0.43;;;;;;;;;;5013108;28;20457;-85
2023/03/14 03:05:52;;;;;;;0.50;0.40;;;;;;;;;;5014478;28;20452;-88
2023/03/14 03:08:19;;;;;;;0.40;0.30;;;;;;;;;;5014378;28;20463;-81
2023/03/14 03:10:47;;;;;;;1.90;0.50;;;;;;;;;;5014489;28;20464;-85
2023/03/14 03:13:14;;;;;;;0.57;0.27;;;;;;;;;;5014134;28;20972;-88
2023/03/14 03:15:41;;;;;;;0.67;0.40;;;;;;;;;;5014058;28;20499;-87
2023/03/14 03:18:08;;;;;;;0.40;0.30;;;;;;;;;;5013139;28;20522;-85
2023/03/14 03:20:37;;;;;;;2.57;0.47;;;;;;;;;;5013950;28;20472;-87
2023/03/14 03:23:04;;;;;;;0.40;0.30;;;;;;;;;;5014173;28;20445;-86
2023/03/14 03:25:31;;;;;;;1.20;0.33;;;;;;;;;;5014069;28;20455;-84
2023/03/14 03:27:58;;;;;;;0.50;0.40;;;;;;;;;;5013979;28;20464;-88
2023/03/14 03:30:25;;;;;;;0.43;0.30;;;;;;;;;;5014404;28;20825;-84
2023/03/14 03:32:52;;;;;;;0.70;0.67;;;;;;;;;;5012688;28;20826;-93
2023/03/14 03:35:19;;;;;;;0.67;0.53;;;;;;;;;;5014243;28;20859;-85
2023/03/14 03:37:50;;;;;;;0.40;0.20;;;;;;;;;;5014060;28;20956;-89
2023/03/14 03:40:17;;;;;;;2.97;0.60;;;;;;;;;;5014265;28;20480;-90
2023/03/14 03:42:44;;;;;;;0.67;0.40;;;;;;;;;;5014162;28;20460;-88
2023/03/14 03:45:11;;;;;;;0.40;0.30;;;;;;;;;;5014110;28;20437;-88
2023/03/14 03:47:38;;;;;;;6.33;2.50;;;;;;;;;;5013817;28;20449;-81
2023/03/14 03:50:06;;;;;;;2.30;0.30;;;;;;;;;;5013840;28;20455;-89
2023/03/14 03:52:33;;;;;;;1.27;0.43;;;;;;;;;;5014265;28;20960;-83
2023/03/14 03:55:01;;;;;;;0.50;0.33;;;;;;;;;;5014185;28;20487;-91
2023/03/14 03:57:29;;;;;;;1.37;0.63;;;;;;;;;;5013986;28;21012;-89
2023/03/14 03:59:56;;;;;;;1.63;0.90;;;;;;;;;;5013776;28;20444;-86
2023/03/14 04:02:23;;;;;;;0.40;0.20;;;;;;;;;;5013939;28;20455;-85
2023/03/14 04:04:50;;;;;;;0.50;0.30;;;;;;;;;;5013368;28;20547;-90
2023/03/14 04:07:17;;;;;;;1.20;0.57;;;;;;;;;;5014148;28;20449;-90
2023/03/14 04:09:44;;;;;;;0.90;0.53;;;;;;;;;;4995707;28;20448;-84
2023/03/14 04:12:13;;;;;;;2.07;0.60;;;;;;;;;;5014107;28;20455;-91
2023/03/14 04:14:40;;;;;;;2.87;0.50;;;;;;;;;;5013937;28;20470;-91
2023/03/14 04:17:07;;;;;;;0.80;0.43;;;;;;;;;;5014009;28;20463;-78
2023/03/14 04:19:35;;;;;;;0.63;0.40;;;;;;;;;;5012723;28;20473;-89
2023/03/14 04:22:02;;;;;;;2.63;0.30;;;;;;;;;;5014139;28;20940;-89
2023/03/14 04:24:29;;;;;;;1.73;0.70;;;;;;;;;;5014275;28;20977;-89
2023/03/14 04:26:56;;;;;;;1.53;0.47;;;;;;;;;;5014766;28;20437;-83
2023/03/14 04:29:24;;;;;;;0.50;0.40;;;;;;;;;;5013915;28;20452;-83
2023/03/14 04:31:51;;;;;;;1.23;0.50;;;;;;;;;;5013900;28;20452;-90
2023/03/14 04:34:18;;;;;;;0.60;0.30;;;;;;;;;;5012795;28;20550;-90
2023/03/14 04:36:46;;;;;;;0.60;0.30;;;;;;;;;;5014020;28;20507;-83
2023/03/14 04:39:13;;;;;;;1.00;0.40;;;;;;;;;;5014276;28;20480;-90
2023/03/14 04:41:40;;;;;;;1.20;0.53;;;;;;;;;;5014802;28;20469;-83
2023/03/14 04:44:07;;;;;;;4.60;0.70;;;;;;;;;;5016036;28;20443;-90
2023/03/14 04:46:36;;;;;;;2.87;0.50;;;;;;;;;;5017840;28;20455;-90
2023/03/14 04:49:03;;;;;;;5.10;0.70;;;;;;;;;;5017408;28;20452;-90
2023/03/14 04:51:30;;;;;;;2.93;0.70;;;;;;;;;;5018414;28;20463;-88
2023/03/14 04:53:57;;;;;;;1.73;0.50;;;;;;;;;;5017684;28;21016;-91
2023/03/14 04:56:25;;;;;;;1.27;0.40;;;;;;;;;;5016936;28;20483;-88
2023/03/14 04:58:52;;;;;;;2.50;0.90;;;;;;;;;;5017396;28;20452;-88
2023/03/14 05:01:19;;;;;;;0.73;0.60;;;;;;;;;;5017746;28;20472;-89
2023/03/14 05:03:48;;;;;;;0.60;0.50;;;;;;;;;;5016328;28;20535;-88
2023/03/14 05:06:19;;;;;;;3.10;0.60;;;;;;;;;;5017345;28;20421;-87
2023/03/14 05:08:55;;;;;;;3.17;1.23;;;;;;;;;;5017795;28;20483;-91
2023/03/14 05:11:22;;;;;;;1.13;0.40;;;;;;;;;;5017467;28;20535;-89
2023/03/14 05:13:49;;;;;;;2.43;1.13;;;;;;;;;;5017561;28;20982;-89
2023/03/14 05:16:16;;;;;;;0.97;0.50;;;;;;;;;;5017284;28;20918;-88
2023/03/14 05:18:45;;;;;;;2.57;0.97;;;;;;;;;;5016540;28;20463;-91
2023/03/14 05:21:14;;;;;;;0.77;0.60;;;;;;;;;;5017130;28;20474;-88
2023/03/14 05:23:41;;;;;;;2.67;0.30;;;;;;;;;;5017291;28;20539;-90
2023/03/14 05:26:08;;;;;;;3.90;0.80;;;;;;;;;;5017302;28;20543;-89
2023/03/14 05:28:35;;;;;;;1.03;0.53;;;;;;;;;;5016662;28;20544;-88
2023/03/14 05:31:02;;;;;;;3.90;1.40;;;;;;;;;;5017086;28;20955;-91
2023/03/14 05:33:29;;;;;;;2.00;0.50;;;;;;;;;;5016105;28;20552;-88
2023/03/14 05:35:57;;;;;;;4.43;0.60;;;;;;;;;;5016346;28;20924;-90
2023/03/14 05:38:25;;;;;;;2.10;1.30;;;;;;;;;;5016141;28;20476;-88
2023/03/14 05:40:52;;;;;;;1.73;0.90;;;;;;;;;;5016257;28;20535;-89
2023/03/14 05:43:19;;;;;;;1.10;0.67;;;;;;;;;;5016514;28;20484;-89
2023/03/14 05:45:47;;;;;;;0.97;0.40;;;;;;;;;;5016588;28;20544;-88
2023/03/14 05:48:14;;;;;;;1.30;0.60;;;;;;;;;;5015141;28;20452;-89
2023/03/14 05:50:41;;;;;;;1.90;0.60;;;;;;;;;;5016040;28;20455;-88
2023/03/14 05:53:08;;;;;;;0.80;0.50;;;;;;;;;;5016338;28;20456;-89
2023/03/14 05:55:36;;;;;;;1.43;0.50;;;;;;;;;;5015790;28;20487;-88
2023/03/14 05:58:03;;;;;;;3.17;1.00;;;;;;;;;;5016071;28;20460;-88
2023/03/14 06:00:31;;;;;;;1.53;0.83;;;;;;;;;;5016051;28;20500;-90
2023/03/14 06:02:58;;;;;;;1.40;0.60;;;;;;;;;;5015083;28;20584;-87
2023/03/14 06:05:25;;;;;;;1.03;0.80;;;;;;;;;;5015342;28;20456;-87
2023/03/14 06:07:52;;;;;;;1.87;1.43;;;;;;;;;;5015889;28;20463;-90
2023/03/14 06:10:19;;;;;;;0.90;0.50;;;;;;;;;;5015819;28;20443;-86
2023/03/14 06:12:48;;;;;;;1.63;0.60;;;;;;;;;;5015970;28;20444;-88
2023/03/14 06:15:15;;;;;;;0.70;0.40;;;;;;;;;;5015790;28;20453;-87
2023/03/14 06:17:42;;;;;;;5.73;0.70;;;;;;;;;;5014689;28;20449;-86
2023/03/14 06:20:10;;;;;;;1.80;0.40;;;;;;;;;;5015407;28;20480;-86
2023/03/14 06:22:38;;;;;;;7.90;1.17;;;;;;;;;;5015363;28;20503;-91
2023/03/14 06:25:05;;;;;;;0.60;0.53;;;;;;;;;;5015624;28;20453;-82
2023/03/14 06:27:32;;;;;;;4.40;0.80;;;;;;;;;;5015375;28;20452;-86
2023/03/14 06:30:01;;;;;;;2.20;0.60;;;;;;;;;;5015333;28;20456;-84
2023/03/14 06:32:28;;;;;;;0.93;0.50;;;;;;;;;;5015991;28;20463;-88
2023/03/14 06:34:57;;;;;;;0.80;0.53;;;;;;;;;;5015138;28;20471;-83
2023/03/14 06:37:24;;;;;;;1.23;0.60;;;;;;;;;;5015065;28;20499;-86
2023/03/14 06:39:51;;;;;;;3.83;0.70;;;;;;;;;;5015083;28;20975;-86
2023/03/14 06:42:18;;;;;;;1.63;0.97;;;;;;;;;;5015569;28;20952;-86
2023/03/14 06:44:46;;;;;;;1.00;0.67;;;;;;;;;;5018305;28;20462;-87
2023/03/14 06:47:22;;;;;;;2.90;0.70;;;;;;;;;;5018181;28;20994;-91
2023/03/14 06:49:49;;;;;;;0.87;0.40;;;;;;;;;;5018233;28;20466;-87
2023/03/14 06:52:16;;;;;;;0.50;0.30;;;;;;;;;;5015510;28;20456;-84
2023/03/14 06:54:43;;;;;;;1.40;0.40;;;;;;;;;;5016535;28;20444;-85
2023/03/14 06:57:10;;;;;;;0.80;0.40;;;;;;;;;;5015468;28;20492;-86
2023/03/14 06:59:37;;;;;;;0.50;0.30;;;;;;;;;;5014995;28;20456;-81
2023/03/14 07:02:04;;;;;;;0.83;0.40;;;;;;;;;;5014365;28;20471;-84
2023/03/14 07:04:33;;;;;;;0.70;0.30;;;;;;;;;;5012927;28;20457;-86
2023/03/14 07:07:00;;;;;;;2.93;0.70;;;;;;;;;;5013578;28;20456;-81
2023/03/14 07:09:27;;;;;;;1.97;0.90;;;;;;;;;;5013387;28;20955;-82
2023/03/14 07:11:54;;;;;;;1.67;0.70;;;;;;;;;;4996116;28;20449;-83
2023/03/14 07:14:22;;;;;;;1.10;0.60;;;;;;;;;;4994459;28;20928;-84
2023/03/14 07:16:49;;;;;;;1.20;0.90;;;;;;;;;;4994090;28;20500;-82
2023/03/14 07:19:16;;;;;;;6.30;3.73;;;;;;;;;;4993135;28;21011;-88
2023/03/14 07:21:44;;;;;;;1.23;0.83;;;9.60;99.90;;;;;;4994494;28;20450;-83
2023/03/14 07:24:11;;;;;;;1.60;0.80;;;;;;;;;;4994419;28;20445;-82
2023/03/14 07:26:38;;;;;;;2.87;1.70;;;;;;;;;;4994438;28;20473;-86
2023/03/14 07:29:05;;;;;;;0.50;0.30;;;;;;;;;;4994379;28;20472;-85
2023/03/14 07:31:33;;;;;;;0.40;0.30;;;;;;;;;;4994234;28;20445;-83
2023/03/14 07:34:00;;;;;;;1.73;1.63;;;;;;;;;;4992966;28;20441;-85
2023/03/14 07:36:27;;;;;;;3.13;0.70;;;;;;;;;;4993932;28;20988;-82
2023/03/14 07:38:55;;;;;;;2.73;1.90;;;;;;;;;;4993867;28;20481;-84
2023/03/14 07:41:22;;;;;;;2.70;0.90;;;11.00;99.90;;;;;;4993904;28;20449;-83
2023/03/14 07:43:50;;;;;;;9.40;4.30;;;;;;;;;;4994017;28;20456;-86
2023/03/14 07:46:17;;;;;;;1.33;0.80;;;;;;;;;;4994006;28;20790;-86
2023/03/14 07:48:44;;;;;;;2.00;0.57;;;;;;;;;;4992716;28;20457;-83
2023/03/14 07:51:11;;;;;;;0.80;0.50;;;;;;;;;;4993904;28;20460;-82
2023/03/14 07:53:39;;;;;;;1.53;1.30;;;;;;;;;;4993736;28;20460;-84
2023/03/14 07:56:08;;;;;;;1.70;0.60;;;;;;;;;;4993791;28;20493;-84
2023/03/14 07:58:35;;;;;;;0.87;0.60;;;;;;;;;;4993756;28;20449;-83
2023/03/14 08:01:02;;;;;;;0.87;0.70;;;;;;;;;;4993804;28;20453;-83
2023/03/14 08:03:29;;;;;;;1.17;0.80;;;;;;;;;;4992513;28;20453;-83
2023/03/14 08:05:56;;;;;;;0.50;0.30;;;;;;;;;;4993630;28;20827;-84
2023/03/14 08:08:23;;;;;;;0.50;0.30;;;;;;;;;;4993874;28;20792;-83
2023/03/14 08:10:50;;;;;;;4.10;0.50;;;;;;;;;;4993580;28;20449;-83
2023/03/14 08:13:19;;;;;;;1.27;0.90;;;;;;;;;;4993537;28;20457;-83
2023/03/14 08:15:49;;;;;;;1.40;0.30;;;11.70;99.90;;;;;;4993582;28;20457;-84
2023/03/14 08:18:16;;;;;;;0.50;0.40;;;;;;;;;;4992303;28;20551;-84
2023/03/14 08:20:43;;;;;;;0.40;0.30;;;;;;;;;;4993272;28;20452;-83
2023/03/14 08:23:10;;;;;;;1.43;0.33;;;;;;;;;;4993543;28;20441;-82
2023/03/14 08:25:39;;;;;;;0.70;0.30;;;12.70;98.90;;;;;;4993522;28;20445;-83
2023/03/14 08:28:06;;;;;;;0.70;0.30;;;;;;;;;;4993533;28;20941;-83
2023/03/14 08:30:34;;;;;;;0.50;0.37;;;13.20;95.90;;;;;;4993513;28;20449;-83
2023/03/14 08:33:01;;;;;;;0.50;0.30;;;;;;;;;;4992197;28;20445;-81
2023/03/14 08:35:28;;;;;;;1.60;0.40;;;13.40;92.90;;;;;;4988513;28;20445;-83
2023/03/14 08:37:56;;;;;;;0.40;0.27;;;;;;;;;;4987320;28;20837;-83
2023/03/14 08:40:23;;;;;;;0.67;0.43;;;;;;;;;;4993090;28;20453;-81
2023/03/14 08:42:50;;;;;;;0.80;0.40;;;;;;;;;;4993497;28;20464;-80
2023/03/14 08:45:18;;;;;;;2.00;0.63;;;;;;;;;;4983652;28;20450;-86
2023/03/14 08:47:49;;;;;;;0.50;0.30;;;12.10;95.80;;;;;;4973174;28;20953;-82
2023/03/14 08:50:17;;;;;;;0.63;0.30;;;;;;;;;;4974928;28;20450;-89
2023/03/14 08:52:44;;;;;;;1.23;0.33;;;;;;;;;;4979579;28;21005;-86
2023/03/14 08:55:11;;;;;;;0.43;0.27;;;;;;;;;;4962969;28;20457;-84
2023/03/14 08:57:46;;;;;;;1.40;0.53;;;;;;;;;;5014423;28;20488;-90
2023/03/14 09:00:15;;;;;;;1.37;0.60;;;;;;;;;;5014347;28;20463;-92
2023/03/14 09:02:44;;;;;;;6.00;0.40;;;;;;;;;;5015055;28;20452;-88
2023/03/14 09:05:14;;;;;;;1.47;0.30;;;;;;;;;;5014495;28;20506;-86
2023/03/14 09:07:42;;;;;;;0.40;0.20;;;;;;;;;;5013662;28;20455;-89
2023/03/14 09:10:09;;;;;;;0.60;0.30;;;;;;;;;;5013699;28;20453;-86
2023/03/14 09:12:36;;;;;;;0.63;0.30;;;;;;;;;;5013023;28;20459;-86
2023/03/14 09:15:04;;;;;;;0.60;0.40;;;;;;;;;;5013067;28;20507;-88
2023/03/14 09:17:31;;;;;;;0.40;0.20;;;;;;;;;;5012495;28;20527;-85
2023/03/14 09:19:59;;;;;;;0.93;0.40;;;;;;;;;;5011955;28;20534;-89
2023/03/14 09:22:27;;;;;;;0.40;0.23;;;;;;;;;;5012745;28;20458;-87
2023/03/14 09:24:54;;;;;;;0.40;0.30;;;;;;;;;;5013522;28;20536;-88
2023/03/14 09:27:21;;;;;;;0.93;0.40;;;;;;;;;;5013133;28;20455;-90
2023/03/14 09:29:49;;;;;;;0.43;0.20;;;;;;;;;;5013381;28;20472;-89
2023/03/14 09:32:16;;;;;;;1.63;0.60;;;;;;;;;;5016825;28;20444;-90
2023/03/14 09:34:43;;;;;;;0.43;0.27;;;;;;;;;;5016932;28;20470;-85
2023/03/14 09:37:10;;;;;;;0.40;0.30;;;;;;;;;;5017729;28;20492;-84
2023/03/14 09:39:39;;;;;;;2.50;0.87;;;;;;;;;;5015899;28;20464;-90
2023/03/14 09:42:23;;;;;;;0.80;0.43;;;11.00;99.90;;;;;;5017813;28;20453;-90
2023/03/14 09:45:02;;;;;;;1.13;0.40;;;;;;;;;;5016184;28;20452;-91
2023/03/14 09:47:31;;;;;;;4.23;1.33;;;;;;;;;;5018109;28;20449;-86
2023/03/14 09:49:59;;;;;;;1.27;0.77;;;;;;;;;;5017893;28;20494;-89
2023/03/14 09:52:31;;;;;;;0.60;0.30;;;10.60;99.90;;;;;;5016904;28;20456;-90
2023/03/14 09:55:04;;;;;;;0.50;0.37;;;;;;;;;;5019747;28;20448;-91
2023/03/14 09:57:33;;;;;;;0.80;0.47;;;;;;;;;;5019434;28;20499;-91
2023/03/14 10:00:07;;;;;;;0.40;0.30;;;10.70;99.90;;;;;;5017225;28;20448;-82
2023/03/14 10:02:36;;;;;;;0.50;0.30;;;10.80;99.90;;;;;;5015470;28;20871;-81
2023/03/14 10:05:14;;;;;;;0.40;0.20;;;11.00;99.90;;;;;;5014046;28;20445;-83
2023/03/14 10:07:41;;;;;;;0.50;0.20;;;;;;;;;;5015487;28;20467;-78
2023/03/14 10:10:14;;;;;;;1.70;0.30;;;12.30;99.90;;;;;;5015168;28;20455;-82
2023/03/14 10:12:41;;;;;;;0.40;0.30;;;;;;;;;;5015213;28;20888;-80
2023/03/14 10:15:10;;;;;;;0.50;0.40;;;12.30;98.90;;;;;;5011391;28;20526;-78
2023/03/14 10:17:42;;;;;;;1.93;0.27;;;13.20;96.00;;;;;;5014513;28;20503;-86
2023/03/14 10:20:32;;;;;;;0.50;0.20;;;13.30;96.90;;;;;;5013619;28;20812;-82
2023/03/14 10:22:59;;;;;;;0.70;0.30;;;;;;;;;;5015165;28;20452;-79
2023/03/14 10:25:29;;;;;;;0.40;0.20;;;12.80;97.30;;;;;;5015073;28;20452;-76
2023/03/14 10:27:56;;;;;;;0.50;0.30;;;;;;;;;;5014956;28;20452;-78
2023/03/14 10:30:35;;;;;;;2.60;0.30;;;12.00;95.20;;;;;;5014861;28;20459;-77
2023/03/14 10:33:09;;;;;;;0.40;0.20;;;;;;;;;;5013264;28;20535;-76
2023/03/14 10:35:36;;;;;;;1.03;0.30;;;;;;;;;;5014804;28;20460;-80
2023/03/14 10:38:04;;;;;;;0.60;0.30;;;12.20;99.00;;;;;;5014429;28;20492;-82
2023/03/14 10:40:34;;;;;;;0.50;0.30;;;12.00;99.30;;;;;;5014483;28;20491;-77
2023/03/14 10:43:02;;;;;;;0.40;0.20;;;;;;;;;;5014630;28;20453;-81
2023/03/14 10:45:37;;;;;;;0.40;0.20;;;11.90;97.80;;;;;;5014584;28;20448;-78
2023/03/14 10:48:19;;;;;;;0.87;0.30;;;11.90;97.60;;;;;;5013387;28;20525;-80
2023/03/14 10:50:54;;;;;;;0.40;0.20;;;11.90;99.50;;;;;;5014577;28;20464;-77
2023/03/14 10:53:21;;;;;;;0.50;0.30;;;;;;;;;;5014399;28;20971;-80
2023/03/14 10:55:49;;;;;;;0.50;0.30;;;11.30;99.90;;;;;;5014427;28;20452;-77
2023/03/14 10:58:24;;;;;;;0.70;0.50;;;11.30;99.90;;;;;;5014204;28;20581;-76
2023/03/14 11:01:07;;;;;;;0.60;0.30;;;11.00;99.90;;;;;;5014268;28;20443;-76
2023/03/14 11:03:38;;;;;;;0.40;0.27;;;11.10;99.90;;;;;;5012899;28;20460;-83
2023/03/14 11:06:12;;;;;;;0.50;0.30;;;11.00;99.90;;;;;;5014236;28;20448;-78
2023/03/14 11:08:48;;;;;;;0.40;0.20;;;11.10;99.90;;;;;;5014186;28;20448;-77
2023/03/14 11:11:21;;;;;;;0.90;0.50;;;11.20;99.90;;;;;;5014130;28;20510;-76
2023/03/14 11:13:57;;;;;;;0.40;0.20;;;11.10;99.90;;;;;;5014017;28;20459;-76
2023/03/14 11:16:32;;;;;;;0.40;0.20;;;10.90;99.90;;;;;;5013995;28;20455;-79
2023/03/14 11:19:17;;;;;;;0.40;0.20;;;11.00;99.90;;;;;;5012709;28;20492;-76
2023/03/14 11:21:52;;;;;;;0.40;0.20;;;11.00;99.90;;;;;;5013909;28;20448;-75
2023/03/14 11:24:30;;;;;;;0.40;0.30;;;10.80;99.90;;;;;;5012720;28;20806;-77
2023/03/14 11:27:05;;;;;;;0.40;0.30;;;10.70;99.90;;;;;;5013824;28;20444;-77
2023/03/14 11:29:39;;;;;;;0.87;0.30;;;10.60;99.90;;;;;;5013807;28;20538;-77
2023/03/14 11:32:13;;;;;;;1.97;1.60;;;10.60;99.90;;;;;;5013856;28;20940;-77
2023/03/14 11:34:48;;;;;;;0.87;0.43;;;10.40;99.90;;;;;;5012415;28;20456;-76
2023/03/14 11:37:21;;;;;;;2.20;0.93;;;10.50;99.90;;;;;;5013650;28;20491;-77
2023/03/14 11:39:57;;;;;;;0.50;0.37;;;10.40;99.90;;;;;;5013505;28;20491;-82
2023/03/14 11:42:27;;;;;;;0.73;0.30;;;10.40;99.90;;;;;;5013382;28;20460;-75
2023/03/14 11:44:57;;;;;;;0.50;0.40;;;10.20;99.90;;;;;;5011248;28;20463;-75
2023/03/14 11:47:27;;;;;;;0.40;0.20;;;10.30;99.90;;;;;;5011291;28;20555;-74
2023/03/14 11:49:59;;;;;;;1.33;0.33;;;10.40;99.90;;;;;;4992567;28;20453;-75
2023/03/14 11:52:32;;;;;;;0.40;0.20;;;10.40;99.90;;;;;;4993770;28;20453;-75
2023/03/14 11:55:05;;;;;;;0.50;0.30;;;10.40;99.90;;;;;;4993266;28;20453;-74
2023/03/14 11:57:34;;;;;;;2.10;0.53;;;10.40;99.90;;;;;;4992837;28;20492;-76
2023/03/14 12:00:09;;;;;;;1.63;0.50;;;10.50;99.90;;;;;;4993150;28;20457;-75
2023/03/14 12:02:44;;;;;;;0.70;0.40;;;10.30;99.90;;;;;;4993668;28;20801;-75
2023/03/14 12:05:46;;;;;;;1.03;0.40;;;10.20;99.90;;;;;;4993731;28;20459;-77
2023/03/14 12:08:45;;;;;;;0.80;0.40;;;10.00;99.90;;;;;;4973798;28;20884;-74
2023/03/14 12:11:20;;;;;;;0.40;0.20;;;10.00;99.90;;;;;;4967400;28;20454;-76
2023/03/14 12:13:50;;;;;;;0.40;0.20;;;9.80;99.90;;;;;;4973822;28;20450;-75
2023/03/14 12:16:36;;;;;;;0.40;0.20;;;9.80;99.90;;;;;;4973967;28;20492;-77
2023/03/14 12:19:40;;;;;;;0.40;0.20;;;9.90;99.90;;;;;;4972877;28;20505;-74
2023/03/14 12:22:28;;;;;;;0.40;0.20;;;10.00;99.90;;;;;;4974056;28;20454;-75
2023/03/14 12:24:56;;;;;;;0.40;0.20;;;;;;;;;;4973904;28;20454;-83
2023/03/14 12:28:01;;;;;;;0.40;0.20;;;10.10;99.90;;;;;;4973341;28;20450;-78
2023/03/14 12:30:32;;;;;;;0.40;0.20;;;10.10;99.90;;;;;;4973776;28;20508;-77
2023/03/14 12:33:29;;;;;;;0.70;0.70;;;10.00;99.90;;;;;;4972730;28;20454;-79
2023/03/14 12:36:01;;;;;;;0.70;0.40;;;9.90;99.90;;;;;;4973600;28;20454;-85
2023/03/14 12:38:39;;;;;;;7.37;6.73;;;10.50;99.90;;;;;;4973777;28;20520;-82
2023/03/14 12:41:13;;;;;;;2.30;0.93;;;;;;;;;;4973846;28;20469;-77
2023/03/14 12:43:40;;;;;;;1.33;0.70;;;;;;;;;;4973840;28;20454;-82
2023/03/14 12:46:20;;;;;;;0.60;0.47;;;;;;;;;;4973827;28;20875;-76
2023/03/14 12:48:50;;;;;;;1.53;1.27;;;11.40;98.70;;;;;;4972429;28;20461;-77
2023/03/14 12:51:19;;;;;;;2.47;0.70;;;11.30;99.90;;;;;;4973899;28;20480;-79
2023/03/14 12:54:10;;;;;;;1.13;0.50;;;10.80;93.30;;;;;;4973744;28;20469;-77
2023/03/14 12:56:53;;;;;;;1.60;0.60;;;10.90;95.50;;;;;;4973869;28;20446;-78
2023/03/14 12:59:32;;;;;;;0.70;0.40;;;10.60;93.30;;;;;;4972621;28;20497;-76
2023/03/14 13:02:14;;;;;;;0.50;0.40;;;10.90;94.70;;;;;;4973796;28;20454;-74
2023/03/14 13:04:47;;;;;;;0.50;0.30;;;10.80;94.30;;;;;;4972672;28;20516;-79
2023/03/14 13:07:29;;;;;;;0.80;0.50;;;10.60;94.10;;;;;;4976360;28;20765;-79
2023/03/14 13:10:01;;;;;;;0.60;0.50;;;9.80;96.00;;;;;;4977391;28;20450;-83
2023/03/14 13:12:38;;;;;;;0.90;0.90;;;9.60;91.00;;;;;;4977068;28;20449;-75
2023/03/14 13:15:19;;;;;;;0.70;0.40;;;10.10;95.30;;;;;;4977490;28;20453;-80
2023/03/14 13:17:50;;;;;;;0.50;0.30;;;10.50;90.50;;;;;;4976753;28;20841;-75
2023/03/14 13:20:22;;;;;;;0.70;0.40;;;10.90;88.90;;;;;;4976816;28;20458;-75
2023/03/14 13:22:50;;;;;;;1.03;0.43;;;10.80;88.20;;;;;;4977239;28;20458;-76
2023/03/14 13:25:20;;;;;;;0.50;0.37;;;10.40;85.30;;;;;;4974506;28;20793;-76
2023/03/14 13:27:48;;;;;;;0.50;0.40;;;9.80;92.40;;;;;;4977107;28;20449;-78
2023/03/14 13:30:21;;;;;;;2.40;1.03;;;9.70;96.70;;;;;;4976979;28;20457;-76
2023/03/14 13:32:51;;;;;;;0.67;0.37;;;9.50;94.50;;;;;;4976542;28;20457;-80
2023/03/14 13:35:21;;;;;;;1.27;0.93;;;9.20;93.70;;;;;;4976937;28;20450;-75
2023/03/14 13:37:48;;;;;;;1.43;0.77;;;;;;;;;;4976640;28;20485;-75
2023/03/14 13:40:23;;;;;;;2.20;0.97;;;;;;;;;;4976615;28;20486;-77
2023/03/14 13:42:50;;;;;;;3.53;3.23;;;;;;;;;;4976758;28;20462;-79
2023/03/14 13:45:17;;;;;;;1.33;0.70;;;;;;;;;;4976730;28;20462;-80
2023/03/14 13:47:47;;;;;;;0.77;0.50;;;;;;;;;;4976338;28;20458;-80
2023/03/14 13:50:18;;;;;;;5.67;2.27;;;;;;;;;;4976069;28;20989;-77
2023/03/14 13:52:48;;;;;;;2.20;1.70;;;;;;;;;;4976703;28;20509;-78
2023/03/14 13:55:16;;;;;;;0.63;0.40;;;9.10;95.10;;;;;;4991975;28;20448;-78
2023/03/14 13:57:44;;;;;;;0.80;0.60;;;;;;;;;;4995277;28;20453;-77
2023/03/14 14:00:20;;;;;;;1.40;1.03;;;9.10;98.20;;;;;;4995634;28;20453;-77
2023/03/14 14:02:49;;;;;;;6.30;5.70;;;;;;;;;;4994808;28;20445;-81
2023/03/14 14:05:18;;;;;;;1.20;0.83;;;;;;;;;;4995079;28;20456;-78
2023/03/14 14:07:45;;;;;;;1.00;0.80;;;;;;;;;;4995356;28;20457;-75
2023/03/14 14:10:14;;;;;;;1.33;1.23;;;8.60;91.70;;;;;;4995392;28;20480;-76
2023/03/14 14:12:45;;;;;;;0.73;0.60;;;8.60;82.90;;;;;;4994988;28;20945;-75
2023/03/14 14:15:15;;;;;;;0.93;0.47;;;8.50;84.20;;;;;;4994843;28;20456;-76
2023/03/14 14:17:46;;;;;;;0.90;0.30;;;8.50;82.90;;;;;;4994627;28;20473;-78
2023/03/14 14:20:22;;;;;;;1.43;0.30;;;8.50;84.50;;;;;;4994283;28;20464;-77
2023/03/14 14:22:50;;;;;;;0.57;0.40;;;8.50;76.70;;;;;;4994987;28;20811;-77